createdAt,value
2022-08-23T00:02:23.711Z,3.35
2022-08-23T00:05:07.846Z,4.55
2022-08-23T00:07:43.299Z,7.07
2022-08-23T00:10:12.720Z,6.78
2022-08-23T00:12:40.224Z,12.45
2022-08-23T00:15:09.707Z,6.88
2022-08-23T00:17:37.088Z,7.80
2022-08-23T00:20:09.654Z,5.03
2022-08-23T00:22:37.397Z,6.13
2022-08-23T00:25:06.063Z,5.68
2022-08-23T00:27:33.546Z,5.03
2022-08-23T00:30:00.947Z,6.30
2022-08-23T00:32:30.749Z,3.95
2022-08-23T00:34:59.023Z,5.97
2022-08-23T00:37:27.725Z,9.23
2022-08-23T00:39:54.664Z,5.15
2022-08-23T00:43:10.268Z,5.88
2022-08-23T00:46:08.947Z,5.60
2022-08-23T00:48:38.346Z,6.40
2022-08-23T00:51:24.187Z,6.63
2022-08-23T00:53:55.692Z,3.92
2022-08-23T00:56:25.513Z,6.00
2022-08-23T00:58:54.828Z,5.93
2022-08-23T01:01:24.629Z,7.40
2022-08-23T01:04:00.819Z,9.32
2022-08-23T01:07:02.190Z,8.25
2022-08-23T01:09:29.425Z,6.75
2022-08-23T01:12:06.101Z,7.32
2022-08-23T01:14:51.960Z,4.65
2022-08-23T01:17:26.995Z,8.07
2022-08-23T01:20:10.994Z,5.85
2022-08-23T01:23:07.283Z,5.63
2022-08-23T01:25:35.080Z,4.90
2022-08-23T01:28:02.164Z,7.03
2022-08-23T01:30:32.828Z,5.22
2022-08-23T01:33:03.631Z,6.82
2022-08-23T01:35:44.462Z,5.55
2022-08-23T01:38:12.503Z,5.53
2022-08-23T01:40:41.058Z,7.55
2022-08-23T01:43:09.111Z,6.22
2022-08-23T01:45:37.317Z,10.02
2022-08-23T01:48:06.881Z,6.95
2022-08-23T01:50:33.921Z,5.50
2022-08-23T01:53:01.934Z,6.28
2022-08-23T01:55:29.105Z,8.35
2022-08-23T01:57:59.042Z,5.70
2022-08-23T02:00:30.677Z,8.02
2022-08-23T02:02:59.473Z,6.60
2022-08-23T02:05:27.477Z,6.80
2022-08-23T02:07:54.454Z,6.82
2022-08-23T02:10:21.674Z,6.47
2022-08-23T02:12:48.856Z,5.40
2022-08-23T02:15:16.602Z,5.57
2022-08-23T02:17:44.516Z,3.65
2022-08-23T02:20:12.291Z,6.85
2022-08-23T02:22:39.691Z,5.82
2022-08-23T02:25:07.691Z,6.57
2022-08-23T02:27:34.587Z,7.45
2022-08-23T02:30:02.010Z,6.03
2022-08-23T02:32:31.920Z,6.18
2022-08-23T02:35:04.575Z,3.33
2022-08-23T02:37:33.547Z,7.13
2022-08-23T02:40:01.015Z,6.70
2022-08-23T02:42:28.522Z,6.15
2022-08-23T02:44:55.575Z,6.93
2022-08-23T02:47:23.274Z,5.35
2022-08-23T02:49:51.854Z,3.30
2022-08-23T02:52:18.929Z,5.35
2022-08-23T02:54:45.841Z,4.72
2022-08-23T02:57:13.204Z,4.55
2022-08-23T02:59:40.223Z,4.70
2022-08-23T03:02:07.210Z,4.35
2022-08-23T03:04:34.164Z,5.75
2022-08-23T03:07:01.132Z,4.55
2022-08-23T03:09:28.152Z,4.53
2022-08-23T03:11:55.256Z,4.05
2022-08-23T03:14:22.517Z,3.80
2022-08-23T03:16:49.520Z,3.75
2022-08-23T03:19:16.413Z,5.07
2022-08-23T03:21:43.512Z,5.45
2022-08-23T03:24:12.078Z,4.18
2022-08-23T03:26:44.410Z,5.97
2022-08-23T03:29:11.607Z,4.78
2022-08-23T03:31:38.601Z,4.93
2022-08-23T03:34:06.221Z,4.35
2022-08-23T03:36:33.393Z,5.57
2022-08-23T03:39:00.541Z,9.30
2022-08-23T03:41:27.845Z,9.68
2022-08-23T03:43:54.740Z,9.23
2022-08-23T03:46:24.682Z,11.48
2022-08-23T03:48:56.820Z,10.38
2022-08-23T03:51:24.601Z,12.57
2022-08-23T03:53:51.805Z,11.00
2022-08-23T03:56:26.788Z,9.55
2022-08-23T03:58:54.554Z,10.48
2022-08-23T04:01:25.266Z,11.00
2022-08-23T04:03:54.897Z,11.02
2022-08-23T04:06:21.839Z,5.93
2022-08-23T04:08:48.786Z,10.50
2022-08-23T04:11:15.776Z,10.15
2022-08-23T04:13:43.679Z,4.93
2022-08-23T04:16:11.125Z,8.13
2022-08-23T04:18:38.198Z,11.82
2022-08-23T04:21:12.795Z,8.68
2022-08-23T04:23:40.490Z,7.05
2022-08-23T04:26:09.598Z,6.13
2022-08-23T04:28:37.463Z,5.55
2022-08-23T04:31:05.041Z,8.77
2022-08-23T04:33:34.062Z,11.00
2022-08-23T04:36:02.203Z,11.77
2022-08-23T04:38:29.497Z,8.88
2022-08-23T04:41:15.953Z,7.88
2022-08-23T04:43:46.356Z,6.90
2022-08-23T04:46:15.466Z,8.05
2022-08-23T04:48:43.693Z,7.93
2022-08-23T04:51:11.055Z,8.38
2022-08-23T04:53:38.337Z,6.85
2022-08-23T04:56:07.296Z,6.43
2022-08-23T04:58:35.125Z,8.68
2022-08-23T05:01:05.151Z,12.00
2022-08-23T05:03:32.200Z,7.63
2022-08-23T05:05:59.517Z,6.65
2022-08-23T05:08:26.933Z,10.60
2022-08-23T05:10:54.306Z,8.52
2022-08-23T05:13:21.236Z,9.43
2022-08-23T05:15:52.668Z,7.30
2022-08-23T05:18:19.737Z,8.75
2022-08-23T05:20:46.884Z,8.90
2022-08-23T05:23:14.046Z,7.50
2022-08-23T05:25:52.487Z,6.40
2022-08-23T05:28:28.973Z,4.97
2022-08-23T05:30:58.941Z,5.07
2022-08-23T05:33:28.070Z,9.00
2022-08-23T05:35:55.284Z,8.60
2022-08-23T05:38:22.915Z,5.60
2022-08-23T05:40:54.997Z,9.23
2022-08-23T05:43:23.136Z,7.15
2022-08-23T05:46:02.547Z,7.57
2022-08-23T05:48:31.981Z,13.18
2022-08-23T05:51:28.288Z,9.77
2022-08-23T05:53:58.409Z,7.40
2022-08-23T05:56:31.687Z,10.77
2022-08-23T05:59:02.842Z,8.68
2022-08-23T06:01:30.888Z,5.15
2022-08-23T06:04:02.843Z,9.00
2022-08-23T06:06:36.413Z,8.15
2022-08-23T06:09:06.295Z,7.95
2022-08-23T06:11:33.658Z,9.70
2022-08-23T06:14:02.866Z,9.13
2022-08-23T06:16:32.844Z,8.50
2022-08-23T06:19:02.498Z,7.85
2022-08-23T06:21:31.078Z,9.00
2022-08-23T06:23:58.272Z,9.82
2022-08-23T06:26:31.727Z,10.68
2022-08-23T06:29:05.592Z,8.80
2022-08-23T06:31:51.124Z,6.38
2022-08-23T06:34:32.377Z,11.85
2022-08-23T06:37:05.611Z,8.85
2022-08-23T06:39:36.895Z,7.72
2022-08-23T06:42:38.091Z,11.98
2022-08-23T06:45:04.219Z,10.93
2022-08-23T06:47:31.797Z,7.25
2022-08-23T06:49:59.031Z,5.38
2022-08-23T06:52:28.403Z,4.78
2022-08-23T06:54:55.820Z,7.22
2022-08-23T06:57:24.788Z,10.25
2022-08-23T06:59:51.664Z,6.38
2022-08-23T07:02:18.710Z,9.80
2022-08-23T07:04:45.705Z,8.15
2022-08-23T07:07:12.975Z,7.75
2022-08-23T07:09:41.220Z,4.50
2022-08-23T07:12:09.075Z,5.22
2022-08-23T07:14:38.045Z,7.35
2022-08-23T07:17:05.476Z,5.32
2022-08-23T07:19:34.453Z,4.93
2022-08-23T07:22:02.599Z,4.53
2022-08-23T07:24:33.550Z,4.55
2022-08-23T07:27:06.233Z,4.43
2022-08-23T07:29:35.603Z,6.15
2022-08-23T07:32:03.513Z,4.72
2022-08-23T07:34:30.521Z,3.65
2022-08-23T07:36:57.465Z,5.13
2022-08-23T07:39:26.593Z,4.07
2022-08-23T07:41:53.636Z,3.80
2022-08-23T07:44:27.090Z,4.03
2022-08-23T07:46:54.570Z,3.78
2022-08-23T07:49:21.774Z,5.70
2022-08-23T07:51:50.393Z,6.32
2022-08-23T07:54:18.337Z,4.38
2022-08-23T07:56:45.898Z,4.32
2022-08-23T07:59:13.086Z,5.45
2022-08-23T08:01:42.438Z,3.85
2022-08-23T08:04:09.444Z,3.08
2022-08-23T08:06:39.986Z,3.15
2022-08-23T08:09:07.313Z,3.58
2022-08-23T08:11:35.796Z,2.97
2022-08-23T08:14:08.892Z,2.90
2022-08-23T08:16:39.572Z,2.30
2022-08-23T08:19:09.494Z,3.03
2022-08-23T08:21:41.990Z,2.75
2022-08-23T08:24:10.689Z,3.05
2022-08-23T08:26:37.779Z,2.10
2022-08-23T08:29:05.278Z,2.53
2022-08-23T08:31:32.562Z,1.75
2022-08-23T08:33:59.581Z,2.42
2022-08-23T08:36:35.929Z,2.40
2022-08-23T08:39:06.184Z,2.70
2022-08-23T08:42:05.275Z,2.47
2022-08-23T08:44:49.789Z,1.85
2022-08-23T08:47:27.831Z,2.28
2022-08-23T08:50:06.232Z,2.72
2022-08-23T08:52:37.980Z,3.97
2022-08-23T08:55:13.039Z,3.83
2022-08-23T08:57:43.659Z,3.53
2022-08-23T09:00:14.983Z,3.28
2022-08-23T09:02:42.622Z,3.58
2022-08-23T09:05:20.892Z,3.10
2022-08-23T09:07:56.444Z,3.42
2022-08-23T09:10:52.173Z,3.40
2022-08-23T09:13:34.297Z,2.55
2022-08-23T09:16:32.645Z,3.08
2022-08-23T09:19:03.193Z,2.53
2022-08-23T09:21:58.233Z,2.05
2022-08-23T09:24:26.505Z,2.00
2022-08-23T09:26:53.978Z,2.60
2022-08-23T09:29:32.089Z,2.38
2022-08-23T09:32:06.615Z,1.58
2022-08-23T09:34:36.041Z,3.05
2022-08-23T09:37:07.585Z,2.80
2022-08-23T09:39:38.246Z,2.38
2022-08-23T09:42:28.802Z,3.20
2022-08-23T09:44:56.582Z,2.65
2022-08-23T09:47:33.420Z,2.97
2022-08-23T09:50:17.774Z,2.88
2022-08-23T09:52:47.722Z,4.07
2022-08-23T09:55:35.180Z,3.00
2022-08-23T09:58:24.376Z,3.15
2022-08-23T10:01:06.813Z,2.40
2022-08-23T10:03:33.749Z,2.20
2022-08-23T10:06:01.632Z,2.03
2022-08-23T10:08:33.030Z,2.97
2022-08-23T10:11:25.937Z,2.05
2022-08-23T10:13:54.880Z,1.35
2022-08-23T10:16:40.841Z,1.23
2022-08-23T10:19:23.160Z,0.80
2022-08-23T10:22:14.278Z,1.13
2022-08-23T10:24:46.968Z,1.00
2022-08-23T10:27:59.009Z,0.95
2022-08-23T10:30:42.056Z,0.82
2022-08-23T10:33:26.764Z,1.25
2022-08-23T10:36:23.502Z,1.10
2022-08-23T10:41:57.036Z,0.90
2022-08-23T10:44:29.232Z,1.20
2022-08-23T10:47:33.549Z,0.95
2022-08-23T10:50:07.453Z,1.83
2022-08-23T10:52:50.593Z,2.22
2022-08-23T10:55:39.137Z,1.95
2022-08-23T10:58:11.631Z,2.28
2022-08-23T11:00:39.770Z,1.95
2022-08-23T11:03:19.233Z,2.05
2022-08-23T11:06:25.016Z,1.65
2022-08-23T11:09:07.665Z,1.45
2022-08-23T11:11:40.616Z,1.20
2022-08-23T11:14:31.481Z,1.30
2022-08-23T11:17:02.808Z,1.20
2022-08-23T11:20:00.885Z,0.93
2022-08-23T11:22:30.976Z,1.10
2022-08-23T11:25:05.156Z,1.45
2022-08-23T11:27:34.889Z,1.30
2022-08-23T11:30:32.899Z,1.60
2022-08-23T11:33:08.448Z,1.60
2022-08-23T11:35:51.296Z,1.20
2022-08-23T11:38:47.130Z,1.15
2022-08-23T11:41:19.818Z,1.73
2022-08-23T11:44:06.722Z,1.48
2022-08-23T11:46:48.347Z,1.70
2022-08-23T11:49:18.196Z,2.00
2022-08-23T11:52:11.988Z,1.77
2022-08-23T11:55:00.709Z,1.88
2022-08-23T11:57:38.620Z,1.70
2022-08-23T12:00:29.105Z,3.10
2022-08-23T12:03:36.387Z,2.08
2022-08-23T12:06:03.617Z,2.75
2022-08-23T12:08:46.134Z,2.50
2022-08-23T12:11:14.396Z,1.65
2022-08-23T12:13:49.680Z,1.30
2022-08-23T12:16:17.713Z,1.75
2022-08-23T12:18:54.223Z,1.40
2022-08-23T12:21:45.840Z,1.40
2022-08-23T12:24:15.514Z,1.30
2022-08-23T12:26:42.352Z,1.70
2022-08-23T12:29:21.334Z,0.90
2022-08-23T12:32:11.658Z,0.90
2022-08-23T12:35:02.659Z,0.85
2022-08-23T12:37:57.868Z,1.08
2022-08-23T12:40:36.573Z,0.90
2022-08-23T12:43:27.097Z,1.30
2022-08-23T12:45:57.496Z,1.00
2022-08-23T12:48:27.381Z,1.50
2022-08-23T12:51:03.346Z,1.38
2022-08-23T12:53:45.129Z,1.50
2022-08-23T12:56:32.193Z,2.22
2022-08-23T12:59:06.935Z,1.42
2022-08-23T13:01:40.149Z,1.70
2022-08-23T13:04:11.889Z,1.42
2022-08-23T13:06:52.609Z,1.30
2022-08-23T13:09:30.765Z,1.10
2022-08-23T13:11:59.079Z,1.23
2022-08-23T13:14:37.385Z,1.00
2022-08-23T13:17:26.198Z,1.25
2022-08-23T13:20:01.981Z,1.20
2022-08-23T13:22:31.274Z,1.23
2022-08-23T13:27:57.426Z,1.40
2022-08-23T13:30:36.936Z,1.15
2022-08-23T13:33:10.565Z,1.65
2022-08-23T13:35:43.512Z,1.58
2022-08-23T13:38:20.987Z,1.60
2022-08-23T13:41:30.434Z,1.20
2022-08-23T13:43:57.734Z,1.38
2022-08-23T13:46:31.066Z,1.50
2022-08-23T13:48:58.384Z,1.40
2022-08-23T13:51:41.338Z,1.42
2022-08-23T13:54:11.353Z,1.20
2022-08-23T13:56:51.017Z,1.98
2022-08-23T13:59:31.673Z,1.60
2022-08-23T14:02:05.314Z,1.80
2022-08-23T14:04:32.416Z,1.80
2022-08-23T14:06:59.271Z,1.70
2022-08-23T14:09:26.190Z,1.50
2022-08-23T14:11:57.531Z,2.00
2022-08-23T14:14:25.245Z,1.75
2022-08-23T14:16:54.483Z,1.55
2022-08-23T14:22:08.448Z,1.75
2022-08-23T14:24:35.581Z,1.52
2022-08-23T14:27:02.544Z,1.75
2022-08-23T14:29:29.530Z,1.77
2022-08-23T14:31:58.775Z,1.05
2022-08-23T14:34:26.980Z,1.40
2022-08-23T14:39:41.038Z,1.42
2022-08-23T14:42:08.283Z,1.20
2022-08-23T14:44:36.407Z,1.50
2022-08-23T14:47:05.367Z,1.35
2022-08-23T14:49:32.627Z,1.38
2022-08-23T14:51:59.710Z,1.65
2022-08-23T14:54:26.737Z,1.70
2022-08-23T14:56:54.225Z,1.35
2022-08-23T14:59:21.810Z,1.40
2022-08-23T15:01:50.804Z,1.60
2022-08-23T15:04:20.257Z,1.30
2022-08-23T15:07:13.817Z,1.50
2022-08-23T15:09:35.067Z,1.33
2022-08-23T15:14:49.999Z,1.23
2022-08-23T15:17:16.976Z,1.55
2022-08-23T15:19:44.050Z,1.80
2022-08-23T15:22:21.864Z,1.77
2022-08-23T15:24:49.623Z,1.33
2022-08-23T15:27:18.614Z,1.20
2022-08-23T15:29:45.891Z,1.65
2022-08-23T15:32:13.014Z,1.20
2022-08-23T15:34:45.502Z,1.70
2022-08-23T15:37:13.779Z,1.40
2022-08-23T15:39:42.312Z,1.23
2022-08-23T15:42:09.437Z,1.52
2022-08-23T15:44:36.383Z,1.33
2022-08-23T15:47:05.826Z,1.60
2022-08-23T15:49:36.560Z,1.60
2022-08-23T15:52:04.634Z,1.30
2022-08-23T15:54:31.863Z,1.75
2022-08-23T15:56:58.799Z,1.45
2022-08-23T15:59:26.053Z,1.42
2022-08-23T16:01:53.757Z,1.80
2022-08-23T16:04:21.034Z,1.45
2022-08-23T16:06:48.366Z,1.38
2022-08-23T16:09:21.169Z,1.33
2022-08-23T16:11:48.400Z,1.42
2022-08-23T16:14:15.420Z,1.30
2022-08-23T16:16:42.714Z,1.58
2022-08-23T16:19:10.033Z,1.27
2022-08-23T16:21:37.480Z,1.70
2022-08-23T16:24:05.803Z,1.52
2022-08-23T16:26:37.484Z,1.38
2022-08-23T16:29:10.387Z,1.67
2022-08-23T16:31:39.984Z,1.48
2022-08-23T16:34:14.711Z,1.50
2022-08-23T16:36:44.880Z,1.70
2022-08-23T16:39:14.107Z,1.75
2022-08-23T16:41:41.133Z,1.40
2022-08-23T16:44:08.173Z,1.27
2022-08-23T16:46:35.830Z,1.60
2022-08-23T16:49:02.867Z,1.73
2022-08-23T16:51:29.793Z,1.75
2022-08-23T16:54:01.770Z,1.60
2022-08-23T16:56:32.245Z,1.50
2022-08-23T16:58:59.833Z,1.55
2022-08-23T17:01:27.531Z,1.55
2022-08-23T17:03:54.548Z,1.65
2022-08-23T17:06:22.083Z,1.75
2022-08-23T17:08:49.197Z,1.70
2022-08-23T17:11:19.217Z,1.33
2022-08-23T17:13:46.417Z,1.60
2022-08-23T17:16:13.506Z,1.75
2022-08-23T17:18:40.627Z,1.58
2022-08-23T17:21:09.303Z,1.55
2022-08-23T17:23:40.554Z,1.23
2022-08-23T17:26:09.803Z,1.50
2022-08-23T17:28:36.830Z,1.83
2022-08-23T17:31:03.986Z,1.67
2022-08-23T17:33:31.208Z,1.35
2022-08-23T17:35:58.219Z,1.50
2022-08-23T17:38:25.153Z,1.42
2022-08-23T17:40:52.964Z,1.60
2022-08-23T17:43:19.930Z,1.23
2022-08-23T17:45:50.373Z,1.30
2022-08-23T17:48:19.252Z,1.45
2022-08-23T17:50:47.459Z,1.45
2022-08-23T17:53:15.808Z,0.95
2022-08-23T17:55:43.752Z,1.30
2022-08-23T17:58:11.639Z,1.40
2022-08-23T18:00:40.306Z,1.20
2022-08-23T18:03:07.426Z,1.20
2022-08-23T18:05:37.324Z,1.58
2022-08-23T18:08:04.489Z,1.25
2022-08-23T18:10:31.857Z,1.55
2022-08-23T18:12:59.018Z,1.67
2022-08-23T18:15:29.574Z,1.20
2022-08-23T18:18:00.297Z,1.35
2022-08-23T18:20:28.751Z,1.30
2022-08-23T18:22:57.527Z,1.70
2022-08-23T18:25:25.609Z,1.20
2022-08-23T18:28:08.591Z,1.35
2022-08-23T18:30:35.582Z,1.30
2022-08-23T18:33:03.232Z,1.13
2022-08-23T18:35:32.551Z,1.30
2022-08-23T18:37:59.621Z,1.35
2022-08-23T18:40:28.095Z,1.27
2022-08-23T18:42:55.179Z,1.30
2022-08-23T18:45:22.487Z,1.38
2022-08-23T18:47:50.102Z,1.70
2022-08-23T18:50:18.411Z,1.77
2022-08-23T18:52:45.369Z,1.52
2022-08-23T18:55:12.369Z,0.93
2022-08-23T18:57:39.369Z,1.60
2022-08-23T19:00:10.247Z,1.05
2022-08-23T19:02:37.168Z,1.38
2022-08-23T19:05:04.822Z,1.13
2022-08-23T19:07:32.557Z,1.05
2022-08-23T19:10:01.294Z,0.90
2022-08-23T19:12:28.676Z,0.93
2022-08-23T19:14:56.125Z,0.88
2022-08-23T19:17:23.178Z,0.93
2022-08-23T19:19:50.705Z,1.00
2022-08-23T19:22:17.736Z,1.27
2022-08-23T19:24:44.809Z,1.40
2022-08-23T19:27:12.384Z,1.33
2022-08-23T19:29:39.346Z,1.65
2022-08-23T19:32:06.617Z,1.85
2022-08-23T19:34:33.738Z,1.50
2022-08-23T19:37:01.633Z,2.42
2022-08-23T19:39:29.728Z,1.40
2022-08-23T19:41:57.321Z,1.67
2022-08-23T19:44:24.447Z,1.92
2022-08-23T19:46:51.478Z,1.65
2022-08-23T19:49:18.510Z,2.03
2022-08-23T19:51:45.443Z,2.10
2022-08-23T19:54:13.803Z,2.20
2022-08-23T19:56:45.804Z,2.30
2022-08-23T19:59:20.713Z,2.38
2022-08-23T20:01:49.869Z,2.83
2022-08-23T20:04:17.738Z,2.90
2022-08-23T20:06:45.558Z,2.58
2022-08-23T20:09:12.832Z,2.17
2022-08-23T20:11:40.027Z,1.75
2022-08-23T20:14:07.705Z,1.70
2022-08-23T20:16:34.951Z,2.40
2022-08-23T20:19:03.581Z,2.78
2022-08-23T20:21:30.471Z,2.10
2022-08-23T20:24:04.308Z,1.92
2022-08-23T20:26:40.853Z,2.22
2022-08-23T20:29:28.068Z,2.03
2022-08-23T20:31:57.556Z,2.20
2022-08-23T20:34:26.455Z,2.25
2022-08-23T20:36:56.289Z,2.47
2022-08-23T20:39:24.351Z,2.40
2022-08-23T20:41:53.134Z,2.08
2022-08-23T20:44:22.200Z,1.88
2022-08-23T20:46:54.159Z,2.38
2022-08-23T20:49:23.719Z,3.00
2022-08-23T20:51:51.081Z,2.42
2022-08-23T20:54:18.592Z,2.08
2022-08-23T20:56:45.844Z,2.72
2022-08-23T20:59:14.732Z,2.38
2022-08-23T21:01:41.695Z,2.10
2022-08-23T21:04:08.725Z,2.25
2022-08-23T21:06:45.322Z,2.20
2022-08-23T21:09:17.038Z,2.40
2022-08-23T21:11:45.193Z,1.60
2022-08-23T21:14:15.185Z,2.42
2022-08-23T21:16:42.402Z,2.50
2022-08-23T21:19:09.778Z,3.50
2022-08-23T21:21:40.827Z,2.40
2022-08-23T21:24:09.538Z,2.42
2022-08-23T21:26:37.372Z,4.47
2022-08-23T21:29:05.696Z,3.17
2022-08-23T21:31:32.854Z,2.63
2022-08-23T21:34:02.817Z,3.70
2022-08-23T21:36:30.152Z,3.20
2022-08-23T21:38:57.079Z,5.78
2022-08-23T21:41:39.665Z,4.20
2022-08-23T21:44:17.975Z,4.90
2022-08-23T21:46:45.600Z,3.92
2022-08-23T21:49:12.942Z,3.63
2022-08-23T21:51:41.049Z,4.57
2022-08-23T21:54:10.189Z,3.22
2022-08-23T21:56:37.868Z,5.22
2022-08-23T21:59:07.393Z,3.72
2022-08-23T22:01:35.714Z,5.05
2022-08-23T22:04:04.740Z,4.22
2022-08-23T22:06:32.294Z,4.18
2022-08-23T22:08:59.233Z,6.43
2022-08-23T22:11:26.173Z,4.95
2022-08-23T22:13:53.958Z,4.03
2022-08-23T22:16:21.141Z,2.88
2022-08-23T22:18:48.238Z,7.18
2022-08-23T22:21:15.333Z,6.07
2022-08-23T22:23:44.591Z,3.70
2022-08-23T22:26:13.705Z,5.68
2022-08-23T22:28:44.764Z,3.63
2022-08-23T22:31:14.427Z,3.28
2022-08-23T22:33:43.581Z,3.05
2022-08-23T22:36:14.172Z,2.70
2022-08-23T22:38:41.160Z,6.07
2022-08-23T22:41:08.161Z,6.68
2022-08-23T22:43:35.641Z,3.60
2022-08-23T22:46:05.046Z,4.45
2022-08-23T22:48:34.366Z,5.25
2022-08-23T22:51:22.384Z,4.15
2022-08-23T22:53:52.207Z,3.35
2022-08-23T22:56:22.205Z,4.53
2022-08-23T22:58:51.688Z,3.03
2022-08-23T23:01:27.167Z,2.60
2022-08-23T23:03:57.241Z,2.55
2022-08-23T23:06:24.917Z,3.75
2022-08-23T23:08:52.989Z,3.72
2022-08-23T23:11:21.440Z,2.58
2022-08-23T23:13:49.253Z,3.70
2022-08-23T23:16:22.436Z,3.72
2022-08-23T23:19:08.681Z,3.42
2022-08-23T23:21:42.461Z,2.70
2022-08-23T23:24:12.540Z,4.22
2022-08-23T23:26:40.197Z,2.10
2022-08-23T23:29:08.538Z,2.50
2022-08-23T23:31:36.457Z,2.65
2022-08-23T23:34:03.850Z,2.58
2022-08-23T23:36:30.941Z,2.95
2022-08-23T23:38:58.216Z,2.92
2022-08-23T23:41:25.556Z,4.75
2022-08-23T23:43:52.690Z,2.08
2022-08-23T23:46:20.848Z,2.47
2022-08-23T23:48:50.027Z,4.05
2022-08-23T23:51:29.320Z,3.00
2022-08-23T23:53:59.080Z,4.95
2022-08-23T23:56:29.482Z,3.28
2022-08-23T23:58:56.980Z,3.60
